Time;durP1;ratioP1;P1;durP2;ratioP2;P2;SDS_P1;SDS_P2;PMS_P1;PMS_P2;Temp;Humidity;BMP_temperature;BMP_pressure;BME280_temperature;BME280_humidity;BME280_pressure;Samples;Min_cycle;Max_cycle;Signal;HPM_P1;HPM_P2
2022/01/11 00:01:41;;;;;;;3.90;2.42;;;;;;;9.19;100.00;102268.56;4971505;28;20065;-79
2022/01/11 00:04:11;;;;;;;;;;;;;;;9.14;100.00;102274.25;4972451;28;20050;-76
2022/01/11 00:06:49;;;;;;;4.20;2.60;;;;;;;9.05;100.00;102272.03;4971750;28;19930;-78
2022/01/11 00:09:29;;;;;;;8.20;2.95;;;;;;;8.98;100.00;102273.34;4974543;28;20662;-79
2022/01/11 00:11:57;;;;;;;4.85;3.08;;;;;;;8.95;100.00;102272.25;4971660;28;20587;-79
2022/01/11 00:14:26;;;;;;;5.63;2.75;;;;;;;8.92;100.00;102278.13;4972441;28;20054;-79
2022/01/11 00:16:55;;;;;;;6.43;2.80;;;;;;;8.90;100.00;102291.75;4971985;28;20042;-79
2022/01/11 00:19:25;;;;;;;5.35;2.90;;;;;;;8.88;100.00;102296.81;4972206;28;20086;-77
2022/01/11 00:21:53;;;;;;;4.65;2.47;;;;;;;8.88;100.00;102301.09;4971934;28;20098;-82
2022/01/11 00:24:30;;;;;;;3.45;2.38;;;;;;;8.87;100.00;102300.22;4974996;28;20528;-83
2022/01/11 00:27:01;;;;;;;5.45;2.05;;;;;;;8.85;100.00;102296.63;4976491;28;20488;-82
2022/01/11 00:29:30;;;;;;;3.65;2.38;;;;;;;8.84;100.00;102296.53;4978383;28;20051;-82
2022/01/11 00:32:03;;;;;;;4.25;2.00;;;;;;;8.82;100.00;102299.03;4978735;28;20055;-86
2022/01/11 00:34:46;;;;;;;5.13;2.42;;;;;;;8.80;100.00;102305.81;4976275;28;20089;-81
2022/01/11 00:37:14;;;;;;;;;;;;;;;8.77;100.00;102309.09;4977297;28;20051;-82
2022/01/11 00:39:45;;;;;;;3.78;2.25;;;;;;;8.73;100.00;102313.97;4978661;28;19922;-79
2022/01/11 00:42:14;;;;;;;6.03;2.63;;;;;;;8.68;100.00;102321.41;4975010;28;20047;-79
2022/01/11 00:44:43;;;;;;;4.00;2.60;;;;;;;8.69;100.00;102330.06;4975063;28;20381;-80
2022/01/11 00:47:12;;;;;;;6.30;2.97;;;;;;;8.67;100.00;102326.47;4974986;28;20051;-81
2022/01/11 00:49:42;;;;;;;6.03;3.45;;;;;;;8.65;100.00;102333.22;4975147;28;20142;-78
2022/01/11 00:52:11;;;;;;;5.88;3.38;;;;;;;8.63;100.00;102335.69;4974571;28;20599;-79
2022/01/11 00:54:39;;;;;;;5.60;2.88;;;;;;;8.58;100.00;102342.28;4974980;28;20089;-78
2022/01/11 00:57:08;;;;;;;5.95;3.15;;;;;;;8.57;100.00;102355.97;4974603;28;20047;-80
2022/01/11 00:59:36;;;;;;;4.75;3.00;;;;;;;8.55;100.00;102348.13;4975223;28;20051;-80
2022/01/11 01:02:05;;;;;;;4.32;2.80;;;;;;;8.54;100.00;102340.28;4974524;28;20086;-81
2022/01/11 01:04:34;;;;;;;5.50;3.00;;;;;;;8.50;100.00;102320.28;4974259;28;20106;-80
2022/01/11 01:07:05;;;;;;;3.75;2.40;;;;;;;8.53;100.00;102330.78;4974937;28;20051;-80
2022/01/11 01:09:42;;;;;;;4.63;2.78;;;;;;;8.51;100.00;102319.47;4976379;28;20509;-78
2022/01/11 01:12:11;;;;;;;6.65;2.60;;;;;;;8.52;100.00;102318.66;4974381;28;20054;-80
2022/01/11 01:14:40;;;;;;;6.57;2.85;;;;;;;8.52;100.00;102309.25;4974724;28;20486;-80
2022/01/11 01:17:09;;;;;;;4.47;2.60;;;;;;;8.50;100.00;102295.34;4961770;28;20146;-81
2022/01/11 01:19:37;;;;;;;4.90;2.83;;;;;;;8.42;100.00;102304.28;4975273;28;20113;-80
2022/01/11 01:22:08;;;;;;;5.65;2.70;;;;;;;8.36;100.00;102294.47;4974256;28;20050;-87
2022/01/11 01:24:36;;;;;;;4.70;2.60;;;;;;;8.34;100.00;102295.16;4974277;28;20124;-80
2022/01/11 01:27:05;;;;;;;5.88;3.00;;;;;;;8.35;100.00;102278.88;4976284;28;20059;-82
2022/01/11 01:29:33;;;;;;;5.63;3.10;;;;;;;8.37;100.00;102269.56;4974684;28;20055;-82
2022/01/11 01:32:02;;;;;;;6.18;2.78;;;;;;;8.34;100.00;102265.09;4974689;28;20051;-84
2022/01/11 01:34:30;;;;;;;4.38;2.83;;;;;;;8.30;100.00;102269.97;4973816;28;20051;-82
2022/01/11 01:36:59;;;;;;;3.28;2.13;;;;;;;8.28;100.00;102268.97;4974955;28;20110;-82
2022/01/11 01:39:29;;;;;;;5.22;3.03;;;;;;;8.29;100.00;102270.75;4975697;28;20051;-81
2022/01/11 01:41:58;;;;;;;6.65;2.83;;;;;;;8.26;100.00;102266.28;4974597;28;20046;-82
2022/01/11 01:44:26;;;;;;;5.05;3.10;;;;;;;8.26;100.00;102261.13;4974456;28;20062;-79
2022/01/11 01:46:55;;;;;;;6.20;3.05;;;;;;;8.25;100.00;102264.53;4973507;28;20055;-79
2022/01/11 01:49:24;;;;;;;4.43;2.95;;;;;;;8.23;100.00;102254.91;4974316;28;20101;-81
2022/01/11 01:51:53;;;;;;;7.07;3.40;;;;;;;8.16;100.00;102257.09;4973838;28;20105;-82
2022/01/11 01:54:23;;;;;;;5.30;3.15;;;;;;;8.23;100.00;102265.22;4974556;28;20085;-81
2022/01/11 01:56:54;;;;;;;4.05;2.88;;;;;;;8.25;100.00;102263.63;4973911;28;20066;-80
2022/01/11 01:59:22;;;;;;;5.00;3.05;;;;;;;8.26;100.00;102267.97;4974152;28;20051;-80
2022/01/11 02:01:51;;;;;;;4.47;2.80;;;;;;;8.24;100.00;102259.25;4973954;28;20135;-81
2022/01/11 02:04:20;;;;;;;6.22;4.15;;;;;;;8.24;100.00;102265.31;4973642;28;20050;-81
2022/01/11 02:06:49;;;;;;;6.20;3.00;;;;;;;8.26;100.00;102270.56;4973419;28;20050;-81
2022/01/11 02:09:18;;;;;;;6.90;3.83;;;;;;;8.27;100.00;102267.19;4975618;28;20724;-81
2022/01/11 02:11:48;;;;;;;6.07;2.90;;;;;;;8.28;100.00;102266.41;4974594;28;20046;-86
2022/01/11 02:14:18;;;;;;;7.35;3.97;;;;;;;8.27;100.00;102268.09;4973651;28;20508;-78
2022/01/11 02:16:47;;;;;;;9.80;4.20;;;;;;;8.30;100.00;102267.38;4974302;28;20211;-81
2022/01/11 02:19:16;;;;;;;9.35;5.20;;;;;;;8.29;100.00;102260.44;4975619;28;20559;-84
2022/01/11 02:21:46;;;;;;;7.70;4.07;;;;;;;8.27;100.00;102252.63;4965495;28;20513;-86
2022/01/11 02:24:14;;;;;;;7.97;4.82;;;;;;;8.27;100.00;102251.69;4974938;28;20109;-87
2022/01/11 02:26:43;;;;;;;7.32;4.00;;;;;;;8.24;100.00;102228.31;4979470;28;20058;-82
2022/01/11 02:29:11;;;;;;;7.88;4.25;;;;;;;8.23;100.00;102231.69;4973864;28;20051;-80
2022/01/11 02:31:41;;;;;;;11.25;4.28;;;;;;;8.19;100.00;102240.91;4973052;28;20703;-80
2022/01/11 02:34:09;;;;;;;12.85;5.25;;;;;;;8.16;100.00;102223.56;4974015;28;20082;-84
2022/01/11 02:36:39;;;;;;;6.18;3.65;;;;;;;8.14;100.00;102208.81;4974151;28;20073;-82
2022/01/11 02:39:11;;;;;;;6.95;4.15;;;;;;;8.13;100.00;102213.09;4973063;28;20500;-81
2022/01/11 02:41:50;;;;;;;4.68;3.13;;;;;;;8.15;100.00;102196.03;4972697;28;20102;-81
2022/01/11 02:44:19;;;;;;;9.73;3.35;;;;;;;8.14;100.00;102194.22;4972982;28;20567;-81
2022/01/11 02:46:48;;;;;;;6.43;2.90;;;;;;;8.13;100.00;102187.31;4972120;28;20082;-81
2022/01/11 02:49:16;;;;;;;6.43;3.50;;;;;;;8.05;100.00;102173.03;4972733;28;20094;-81
2022/01/11 02:51:45;;;;;;;5.65;3.10;;;;;;;8.11;100.00;102168.25;4972042;28;20055;-81
2022/01/11 02:54:18;;;;;;;4.03;2.50;;;;;;;8.10;100.00;102171.63;4972050;28;20106;-80
2022/01/11 02:56:47;;;;;;;6.20;3.20;;;;;;;8.10;100.00;102171.63;4972456;28;20571;-80
2022/01/11 02:59:16;;;;;;;4.90;3.30;;;;;;;8.06;100.00;102179.94;4972509;28;20061;-83
2022/01/11 03:01:44;;;;;;;5.07;3.15;;;;;;;8.02;100.00;102171.94;4972655;28;20144;-85
2022/01/11 03:04:13;;;;;;;11.35;3.92;;;;;;;8.01;100.00;102167.59;4972625;28;20058;-83
2022/01/11 03:06:42;;;;;;;5.60;3.00;;;;;;;7.95;100.00;102170.69;4972190;28;20567;-84
2022/01/11 03:09:10;;;;;;;8.60;3.03;;;;;;;7.86;100.00;102170.09;4973907;28;20117;-81
2022/01/11 03:11:41;;;;;;;11.77;3.38;;;;;;;7.82;100.00;102170.69;4971661;28;20552;-81
2022/01/11 03:14:10;;;;;;;6.07;3.08;;;;;;;7.82;100.00;102188.75;4958736;28;20483;-85
2022/01/11 03:16:38;;;;;;;6.25;3.15;;;;;;;7.81;100.00;102187.84;4973141;28;20059;-83
2022/01/11 03:19:07;;;;;;;8.13;3.42;;;;;;;7.79;100.00;102194.59;4973150;28;20050;-82
2022/01/11 03:21:35;;;;;;;9.82;4.53;;;;;;;7.74;100.00;102199.44;4975843;28;20043;-81
2022/01/11 03:24:04;;;;;;;7.10;3.92;;;;;;;7.73;100.00;102205.38;4972972;28;20097;-82
2022/01/11 03:26:32;;;;;;;6.18;3.67;;;;;;;7.74;100.00;102190.81;4974979;28;20117;-81
2022/01/11 03:29:03;;;;;;;7.07;4.05;;;;;;;7.73;100.00;102174.47;4972891;28;20047;-81
2022/01/11 03:31:31;;;;;;;8.35;3.92;;;;;;;7.73;100.00;102181.31;4972488;28;20054;-81
2022/01/11 03:34:00;;;;;;;7.70;4.22;;;;;;;7.72;100.00;102179.53;4972271;28;20719;-80
2022/01/11 03:36:28;;;;;;;6.95;4.00;;;;;;;7.71;100.00;102183.78;4972389;28;20082;-79
2022/01/11 03:38:57;;;;;;;7.18;4.53;;;;;;;7.70;100.00;102191.44;4972308;28;20043;-82
2022/01/11 03:41:25;;;;;;;6.22;3.90;;;;;;;7.68;100.00;102188.75;4971813;28;20070;-80
2022/01/11 03:43:54;;;;;;;7.35;4.20;;;;;;;7.69;100.00;102182.78;4972328;28;20101;-79
2022/01/11 03:46:24;;;;;;;9.70;4.18;;;;;;;7.66;100.00;102176.56;4972112;28;20484;-79
2022/01/11 03:48:52;;;;;;;6.32;3.53;;;;;;;7.63;100.00;102179.84;4973162;28;20070;-83
2022/01/11 03:51:21;;;;;;;6.15;3.22;;;;;;;7.61;100.00;102181.41;4973430;28;20051;-80
2022/01/11 03:53:55;;;;;;;6.78;3.33;;;;;;;7.60;100.00;102186.47;4974805;28;20051;-86
2022/01/11 03:56:26;;;;;;;7.47;3.70;;;;;;;7.54;100.00;102176.66;4977539;28;20111;-86
2022/01/11 03:58:55;;;;;;;5.63;3.17;;;;;;;7.44;100.00;102166.56;4976202;28;20129;-81
2022/01/11 04:01:25;;;;;;;5.65;3.28;;;;;;;7.35;100.00;102174.56;4975761;28;20074;-80
2022/01/11 04:03:53;;;;;;;8.77;4.07;;;;;;;7.31;100.00;102173.50;4975817;28;20043;-79
2022/01/11 04:06:26;;;;;;;4.93;2.95;;;;;;;7.33;100.00;102166.75;4976492;28;20082;-85
2022/01/11 04:08:54;;;;;;;4.20;2.92;;;;;;;7.38;100.00;102163.59;4964697;28;20063;-83
2022/01/11 04:11:23;;;;;;;5.90;3.80;;;;;;;7.43;100.00;102169.94;4975619;28;20106;-83
2022/01/11 04:13:51;;;;;;;5.95;2.97;;;;;;;7.45;100.00;102161.50;4975798;28;20555;-84
2022/01/11 04:16:20;;;;;;;6.93;3.45;;;;;;;7.48;100.00;102150.50;4980479;28;20071;-84
2022/01/11 04:18:50;;;;;;;9.13;3.45;;;;;;;7.50;100.00;102149.81;4976903;28;20098;-84
2022/01/11 04:21:18;;;;;;;6.88;3.03;;;;;;;7.49;100.00;102160.00;4976059;28;20484;-83
2022/01/11 04:23:47;;;;;;;7.13;2.85;;;;;;;7.49;100.00;102162.56;4977807;28;20089;-84
2022/01/11 04:26:15;;;;;;;7.13;3.20;;;;;;;7.49;100.00;102166.06;4975165;28;20512;-88
2022/01/11 04:28:44;;;;;;;6.97;3.40;;;;;;;7.52;100.00;102170.53;4979274;28;20721;-85
2022/01/11 04:31:12;;;;;;;6.63;3.15;;;;;;;7.54;100.00;102156.94;4979234;28;20128;-87
2022/01/11 04:33:43;;;;;;;7.72;3.17;;;;;;;7.54;100.00;102156.94;4989292;28;20058;-88
2022/01/11 04:36:13;;;;;;;7.15;3.00;;;;;;;7.55;100.00;102163.88;4982277;28;20051;-87
2022/01/11 04:38:43;;;;;;;5.32;3.10;;;;;;;7.55;100.00;102174.16;4981252;28;20051;-86
2022/01/11 04:41:11;;;;;;;5.47;3.15;;;;;;;7.58;100.00;102173.47;4979584;28;20065;-87
2022/01/11 04:43:40;;;;;;;7.55;3.25;;;;;;;7.59;100.00;102170.13;4980639;28;20047;-89
2022/01/11 04:46:11;;;;;;;5.30;3.55;;;;;;;7.60;100.00;102176.16;4978197;28;20093;-85
2022/01/11 04:48:40;;;;;;;5.85;2.92;;;;;;;7.60;100.00;102171.88;4979674;28;20046;-88
2022/01/11 04:51:08;;;;;;;10.35;3.55;;;;;;;7.61;100.00;102188.25;4986839;28;20059;-89
2022/01/11 04:53:38;;;;;;;5.13;2.88;;;;;;;7.57;100.00;102187.16;4985748;28;20046;-86
2022/01/11 04:56:07;;;;;;;7.38;2.95;;;;;;;7.58;100.00;102183.78;4992633;28;20089;-88
2022/01/11 04:58:36;;;;;;;4.68;2.42;;;;;;;7.55;100.00;102183.59;4989278;28;20050;-89
2022/01/11 05:01:04;;;;;;;8.25;2.78;;;;;;;7.54;100.00;102159.53;4988473;28;20047;-90
2022/01/11 05:03:33;;;;;;;5.43;3.10;;;;;;;7.53;100.00;102149.13;4987978;28;20038;-90
2022/01/11 05:06:02;;;;;;;5.95;3.83;;;;;;;7.53;100.00;102138.81;4978532;28;20053;-84
2022/01/11 05:08:30;;;;;;;4.65;3.13;;;;;;;7.54;100.00;102130.31;4979417;28;20059;-87
2022/01/11 05:11:01;;;;;;;8.82;3.65;;;;;;;7.53;100.00;102128.50;4990052;28;20082;-90
2022/01/11 05:13:31;;;;;;;5.15;2.90;;;;;;;7.52;100.00;102117.31;4994321;28;20050;-90
2022/01/11 05:16:02;;;;;;;7.55;3.40;;;;;;;7.50;100.00;102118.91;4986670;28;20616;-90
2022/01/11 05:18:31;;;;;;;60.63;29.75;;;;;;;7.52;100.00;102126.75;4977527;28;20093;-85
2022/01/11 05:20:59;;;;;;;9.05;4.28;;;;;;;7.53;100.00;102120.78;4977761;28;20053;-88
2022/01/11 05:23:28;;;;;;;9.45;3.80;;;;;;;7.52;100.00;102121.59;4982448;28;20077;-89
2022/01/11 05:25:56;;;;;;;8.63;3.03;;;;;;;7.53;100.00;102108.78;4983298;28;20489;-84
2022/01/11 05:28:26;;;;;;;5.93;3.30;;;;;;;7.52;100.00;102090.69;4977107;28;20047;-86
2022/01/11 05:30:55;;;;;;;8.70;4.90;;;;;;;7.52;100.00;102093.25;4975690;28;20050;-87
2022/01/11 05:33:23;;;;;;;5.38;3.97;;;;;;;7.47;100.00;102097.22;4974669;28;20063;-87
2022/01/11 05:35:52;;;;;;;8.20;4.22;;;;;;;7.38;100.00;102092.38;4979585;28;20525;-86
2022/01/11 05:38:20;;;;;;;7.60;4.05;;;;;;;7.45;100.00;102109.13;4976007;28;20049;-83
2022/01/11 05:40:50;;;;;;;7.95;5.03;;;;;;;7.49;100.00;102134.25;4977798;28;20046;-86
2022/01/11 05:43:18;;;;;;;9.60;5.78;;;;;;;7.51;100.00;102141.31;4975953;28;20051;-85
2022/01/11 05:45:49;;;;;;;9.90;4.32;;;;;;;7.54;100.00;102146.66;4974850;28;20118;-86
2022/01/11 05:48:17;;;;;;;9.52;4.82;;;;;;;7.58;100.00;102150.28;4975113;28;20122;-84
2022/01/11 05:50:46;;;;;;;9.25;4.53;;;;;;;7.60;100.00;102156.44;4975162;28;20043;-85
2022/01/11 05:53:14;;;;;;;7.85;4.22;;;;;;;7.61;100.00;102140.19;4973776;28;20544;-83
2022/01/11 05:55:43;;;;;;;10.25;5.43;;;;;;;7.63;100.00;102146.34;4974854;28;20043;-83
2022/01/11 05:58:11;;;;;;;11.05;3.67;;;;;;;7.60;100.00;102133.25;4974932;28;20101;-85
2022/01/11 06:00:40;;;;;;;7.90;4.03;;;;;;;7.58;100.00;102111.66;4974574;28;20621;-85
2022/01/11 06:03:10;;;;;;;7.43;4.10;;;;;;;7.55;100.00;102106.31;4963251;28;20086;-82
2022/01/11 06:05:39;;;;;;;7.07;3.25;;;;;;;7.55;100.00;102096.00;4974026;28;20105;-83
2022/01/11 06:08:16;;;;;;;6.95;3.72;;;;;;;7.56;100.00;102100.38;4976305;28;20545;-82
2022/01/11 06:10:44;;;;;;;7.10;3.47;;;;;;;7.54;100.00;102099.41;4962872;28;20089;-82
2022/01/11 06:13:13;;;;;;;4.68;3.05;;;;;;;7.50;100.00;102102.56;4973772;28;20488;-84
2022/01/11 06:15:41;;;;;;;9.15;2.80;;;;;;;7.46;100.00;102105.72;4976022;28;20058;-85
2022/01/11 06:18:11;;;;;;;4.80;2.92;;;;;;;7.45;100.00;102114.28;4974689;28;20059;-83
2022/01/11 06:20:40;;;;;;;6.57;3.30;;;;;;;7.48;100.00;102117.03;4977671;28;20109;-87
2022/01/11 06:23:09;;;;;;;4.80;2.60;;;;;;;7.48;100.00;102115.34;4986242;28;20054;-87
2022/01/11 06:25:38;;;;;;;7.13;3.63;;;;;;;7.48;100.00;102099.00;4977603;28;20043;-84
2022/01/11 06:28:07;;;;;;;7.03;3.28;;;;;;;7.51;100.00;102091.47;4971400;28;20074;-86
2022/01/11 06:30:36;;;;;;;6.07;3.38;;;;;;;7.54;100.00;102091.66;4969146;28;20050;-83
2022/01/11 06:33:04;;;;;;;7.50;2.92;;;;;;;7.57;100.00;102103.84;4975254;28;20054;-83
2022/01/11 06:35:34;;;;;;;4.05;2.65;;;;;;;7.57;100.00;102107.31;4972957;28;20089;-84
2022/01/11 06:38:03;;;;;;;5.40;3.00;;;;;;;7.58;100.00;102101.34;4972462;28;20105;-82
2022/01/11 06:40:34;;;;;;;4.28;2.78;;;;;;;7.60;100.00;102125.53;4975606;28;20050;-84
2022/01/11 06:43:06;;;;;;;6.85;3.58;;;;;;;7.60;100.00;102097.19;4978091;28;20079;-86
2022/01/11 06:45:36;;;;;;;4.80;2.83;;;;;;;7.60;100.00;102107.50;4980523;28;20386;-82
2022/01/11 06:48:05;;;;;;;7.28;3.75;;;;;;;7.61;100.00;102111.88;4981153;28;20535;-85
2022/01/11 06:50:43;;;;;;;6.95;4.18;;;;;;;7.56;100.00;102115.84;4978289;28;20073;-84
2022/01/11 06:53:16;;;;;;;5.57;3.30;;;;;;;7.50;100.00;102121.47;4973848;28;20693;-84
2022/01/11 06:55:45;;;;;;;6.28;3.78;;;;;;;7.42;100.00;102125.25;4974606;28;20523;-86
2022/01/11 06:58:16;;;;;;;5.57;3.35;;;;;;;7.40;100.00;102134.56;4985994;28;20055;-86
2022/01/11 07:00:48;;;;;;;8.23;3.70;;;;;;;7.34;100.00;102139.31;4973542;28;20226;-85
2022/01/11 07:03:17;;;;;;;14.40;4.22;;;;;;;7.29;100.00;102176.75;4974309;28;20497;-86
2022/01/11 07:05:47;;;;;;;5.88;2.70;;;;;;;7.29;100.00;102159.63;4975002;28;20047;-88
2022/01/11 07:08:18;;;;;;;6.68;3.85;;;;;;;7.30;100.00;102135.63;4975808;28;20066;-86
2022/01/11 07:10:49;;;;;;;4.15;3.28;;;;;;;7.28;100.00;102139.81;4981045;28;20057;-85
2022/01/11 07:13:18;;;;;;;4.63;2.92;;;;;;;7.27;100.00;102139.72;4985192;28;20540;-87
2022/01/11 07:15:46;;;;;;;4.35;2.88;;;;;;;7.25;100.00;102146.44;4968758;28;20086;-87
2022/01/11 07:18:15;;;;;;;6.57;3.55;;;;;;;7.28;100.00;102163.00;4989450;28;20050;-87
2022/01/11 07:20:48;;;;;;;6.80;3.58;;;;;;;7.31;100.00;102157.16;4987733;28;20043;-86
2022/01/11 07:23:16;;;;;;;3.83;2.88;;;;;;;7.32;100.00;102154.66;4983118;28;20057;-87
2022/01/11 07:25:44;;;;;;;4.82;3.03;;;;;;;7.36;100.00;102139.44;4975347;28;20047;-87
2022/01/11 07:28:15;;;;;;;7.80;3.40;;;;;;;7.37;100.00;102157.53;4974382;28;20058;-86
2022/01/11 07:30:52;;;;;;;5.13;3.10;;;;;;;7.39;100.00;102170.50;4985926;28;20046;-86
2022/01/11 07:33:21;;;;;;;5.95;3.58;;;;;;;7.43;100.00;102162.19;4986547;28;20074;-87
2022/01/11 07:35:51;;;;;;;6.22;3.40;;;;;;;7.44;100.00;102170.00;4981006;28;20050;-87
2022/01/11 07:38:20;;;;;;;5.90;3.58;;;;;;;7.41;100.00;102174.09;4977021;28;20083;-87
2022/01/11 07:40:56;;;;;;;6.20;3.63;;;;;;;7.37;100.00;102156.66;4968671;28;20051;-86
2022/01/11 07:43:24;;;;;;;9.45;4.03;;;;;;;7.30;100.00;102153.66;4968809;28;20055;-86
2022/01/11 07:45:53;;;;;;;9.20;3.42;;;;;;;7.23;100.00;102154.06;4964199;28;20497;-87
2022/01/11 07:48:21;;;;;;;5.60;3.63;;;;;;;7.20;100.00;102155.56;4971447;28;20069;-86
2022/01/11 07:50:54;;;;;;;7.63;3.03;;;;;;;7.16;100.00;102151.88;4973403;28;20085;-86
2022/01/11 07:53:23;;;;;;;6.50;3.15;;;;;;;7.17;100.00;102152.75;4972716;28;20129;-87
2022/01/11 07:55:51;;;;;;;6.63;3.40;;;;;;;7.18;100.00;102160.59;4974813;28;20042;-87
2022/01/11 07:58:20;;;;;;;4.65;2.88;;;;;;;7.16;100.00;102172.47;4976187;28;20082;-88
2022/01/11 08:00:49;;;;;;;6.13;3.75;;;;;;;7.18;100.00;102181.19;4977274;28;20042;-86
2022/01/11 08:03:18;;;;;;;6.32;3.10;;;;;;;7.21;100.00;102159.91;4975418;28;20575;-86
2022/01/11 08:05:46;;;;;;;5.53;3.05;;;;;;;7.20;100.00;102148.72;4976345;28;20381;-84
2022/01/11 08:08:16;;;;;;;6.18;3.38;;;;;;;7.16;100.00;102123.56;4973717;28;20110;-85
2022/01/11 08:10:45;;;;;;;11.85;3.65;;;;;;;7.14;100.00;102114.84;4973783;28;20085;-84
2022/01/11 08:13:13;;;;;;;4.97;3.10;;;;;;;7.13;100.00;102124.25;4974675;28;20042;-88
2022/01/11 08:15:44;;;;;;;5.10;3.45;;;;;;;7.16;100.00;102127.81;4975731;28;20511;-85
2022/01/11 08:18:13;;;;;;;5.25;3.20;;;;;;;7.18;100.00;102119.41;4978483;28;20056;-85
2022/01/11 08:20:42;;;;;;;5.45;2.95;;;;;;;7.19;100.00;102123.75;4978466;28;20105;-88
2022/01/11 08:23:10;;;;;;;5.15;2.88;;;;;;;7.16;100.00;102133.88;4977724;28;20492;-86
2022/01/11 08:25:49;;;;;;;6.13;3.47;;;;;;;7.17;100.00;102135.66;4972316;28;20058;-85
2022/01/11 08:28:19;;;;;;;5.80;3.05;;;;;;;7.20;100.00;102143.56;4972206;28;20108;-85
2022/01/11 08:30:48;;;;;;;6.28;3.22;;;;;;;7.23;100.00;102133.47;4972623;28;20101;-85
2022/01/11 08:33:16;;;;;;;7.53;3.30;;;;;;;7.21;100.00;102124.75;4971894;28;20125;-83
2022/01/11 08:35:45;;;;;;;11.68;3.35;;;;;;;7.18;100.00;102119.41;4971503;28;20480;-83
2022/01/11 08:38:14;;;;;;;5.15;3.17;;;;;;;7.13;100.00;102133.66;4971838;28;20105;-85
2022/01/11 08:40:44;;;;;;;6.65;3.42;;;;;;;7.10;100.00;102146.31;4972321;28;20106;-85
2022/01/11 08:43:14;;;;;;;5.40;3.17;;;;;;;7.11;100.00;102153.28;4958177;28;20057;-84
2022/01/11 08:46:02;;;;;;;5.40;3.15;;;;;;;7.17;100.00;102161.41;4976082;28;20051;-85
2022/01/11 08:48:31;;;;;;;5.13;2.97;;;;;;;7.22;100.00;102166.84;4975233;28;20134;-84
2022/01/11 08:50:59;;;;;;;5.05;3.08;;;;;;;7.26;100.00;102161.09;4975634;28;20047;-84
2022/01/11 08:53:30;;;;;;;9.43;3.25;;;;;;;7.29;100.00;102163.88;4974833;28;20047;-84
2022/01/11 08:56:00;;;;;;;7.25;3.20;;;;;;;7.30;100.00;102191.41;4975655;28;20058;-84
2022/01/11 08:58:28;;;;;;;4.65;3.22;;;;;;;7.32;100.00;102187.25;4974772;28;20055;-84
2022/01/11 09:00:57;;;;;;;7.72;3.17;;;;;;;7.34;100.00;102189.13;4975388;28;20501;-85
2022/01/11 09:03:25;;;;;;;5.18;3.17;;;;;;;7.31;100.00;102193.19;4974497;28;20179;-85
2022/01/11 09:05:57;;;;;;;5.25;2.72;;;;;;;7.25;100.00;102192.78;4975433;28;20683;-83
2022/01/11 09:08:26;;;;;;;4.68;3.05;;;;;;;7.21;100.00;102195.94;4976528;28;20061;-84
2022/01/11 09:10:57;;;;;;;5.47;3.28;;;;;;;7.20;100.00;102189.03;4975638;28;20055;-86
2022/01/11 09:13:33;;;;;;;8.70;3.72;;;;;;;7.16;100.00;102166.44;4974941;28;20126;-84
2022/01/11 09:16:02;;;;;;;7.10;3.33;;;;;;;7.14;100.00;102161.19;4974552;28;20571;-84
2022/01/11 09:18:31;;;;;;;4.90;3.33;;;;;;;7.13;100.00;102167.13;4974664;28;20524;-84
2022/01/11 09:21:00;;;;;;;6.50;2.90;;;;;;;7.13;100.00;102162.88;4975567;28;20105;-85
2022/01/11 09:23:32;;;;;;;6.95;3.67;;;;;;;7.14;100.00;102138.00;4977887;28;20078;-84
2022/01/11 09:26:03;;;;;;;6.07;3.37;;;;;;;7.18;100.00;102134.84;4974856;28;20121;-84
2022/01/11 09:28:34;;;;;;;4.85;3.13;;;;;;;7.19;100.00;102143.47;4974909;28;20367;-84
2022/01/11 09:31:02;;;;;;;6.63;3.95;;;;;;;7.17;100.00;102125.38;4974660;28;20073;-84
2022/01/11 09:33:33;;;;;;;5.00;3.10;;;;;;;7.16;100.00;102141.59;4974371;28;20085;-81
2022/01/11 09:36:05;;;;;;;5.97;4.07;;;;;;;7.15;100.00;102142.38;4974689;28;20074;-84
2022/01/11 09:38:34;;;;;;;5.80;3.60;;;;;;;7.09;100.00;102134.25;4974087;28;20050;-86
2022/01/11 09:41:02;;;;;;;5.85;3.47;;;;;;;7.16;100.00;102151.00;4975217;28;20512;-85
2022/01/11 09:43:34;;;;;;;7.00;3.67;;;;;;;7.14;100.00;102143.16;4974303;28;20090;-84
2022/01/11 09:46:05;;;;;;;6.65;3.13;;;;;;;7.18;100.00;102149.41;4974782;28;20133;-83
2022/01/11 09:48:35;;;;;;;10.95;3.38;;;;;;;7.18;100.00;102134.84;4974649;28;20058;-83
2022/01/11 09:51:11;;;;;;;7.25;3.30;;;;;;;7.19;100.00;102126.31;4974634;28;20043;-84
2022/01/11 09:53:40;;;;;;;6.18;3.75;;;;;;;7.14;100.00;102118.31;4973826;28;20082;-83
2022/01/11 09:56:09;;;;;;;5.70;3.47;;;;;;;7.18;100.00;102128.81;4973321;28;20054;-83
2022/01/11 09:58:39;;;;;;;5.93;3.50;;;;;;;7.18;100.00;102134.84;4970442;28;20086;-83
2022/01/11 10:01:08;;;;;;;5.88;3.40;;;;;;;7.14;100.00;102138.00;4964198;28;20046;-82
2022/01/11 10:04:01;;;;;;;5.75;3.22;;;;;;;7.14;100.00;102148.31;4974067;28;20500;-82
2022/01/11 10:06:30;;;;;;;9.73;3.70;;;;;;;7.15;100.00;102155.25;4974642;28;20571;-82
2022/01/11 10:09:16;;;;;;;6.22;3.17;;;;;;;7.16;100.00;102166.44;4976443;28;20113;-83
2022/01/11 10:11:47;;;;;;;6.78;3.55;;;;;;;7.17;100.00;102183.66;4973642;28;20051;-83
2022/01/11 10:14:27;;;;;;;5.20;4.20;;;;;;;7.16;100.00;102182.78;4973702;28;20093;-82
2022/01/11 10:17:13;;;;;;;8.32;4.28;;;;;;;7.18;100.00;102190.59;4972263;28;20493;-83
2022/01/11 10:19:46;;;;;;;11.15;4.63;;;;;;;7.17;100.00;102189.72;4964671;28;20043;-84
2022/01/11 10:22:17;;;;;;;8.45;4.07;;;;;;;7.16;100.00;102193.06;4976642;28;20081;-85
2022/01/11 10:24:47;;;;;;;7.32;4.97;;;;;;;7.16;100.00;102198.22;4973765;28;20096;-85
2022/01/11 10:27:20;;;;;;;11.02;4.13;;;;;;;7.11;100.00;102194.44;4973709;28;20055;-85
2022/01/11 10:29:53;;;;;;;6.25;3.97;;;;;;;7.06;100.00;102191.56;4973929;28;20050;-85
2022/01/11 10:32:24;;;;;;;6.80;3.88;;;;;;;7.00;100.00;102191.16;4972942;28;20053;-85
2022/01/11 10:35:02;;;;;;;7.25;3.75;;;;;;;6.97;100.00;102184.94;4973310;28;20055;-85
2022/01/11 10:37:37;;;;;;;5.72;3.28;;;;;;;6.93;100.00;102181.25;4973414;28;20456;-85
2022/01/11 10:40:11;;;;;;;7.32;3.60;;;;;;;6.93;100.00;102184.69;4972976;28;20047;-84
2022/01/11 10:42:45;;;;;;;8.05;4.55;;;;;;;6.94;100.00;102190.75;4973816;28;20516;-84
2022/01/11 10:45:17;;;;;;;7.20;3.75;;;;;;;6.98;100.00;102182.44;4961668;28;20050;-84
2022/01/11 10:47:55;;;;;;;7.00;3.38;;;;;;;6.97;100.00;102172.94;4973719;28;20421;-85
2022/01/11 10:50:28;;;;;;;7.38;3.88;;;;;;;6.93;100.00;102173.53;4961795;28;20054;-85
2022/01/11 10:52:57;;;;;;;6.35;3.78;;;;;;;6.91;100.00;102175.97;4973997;28;20061;-85
2022/01/11 10:55:28;;;;;;;5.97;4.10;;;;;;;6.98;100.00;102178.97;4974167;28;20049;-85
2022/01/11 10:58:01;;;;;;;6.13;4.13;;;;;;;6.97;100.00;102174.63;4974604;28;20114;-85
2022/01/11 11:00:33;;;;;;;8.95;4.45;;;;;;;6.99;100.00;102173.06;4975129;28;20046;-85
2022/01/11 11:03:04;;;;;;;4.32;3.50;;;;;;;6.97;100.00;102172.06;4974404;28;20082;-86
2022/01/11 11:05:35;;;;;;;5.20;3.70;;;;;;;6.97;100.00;102179.78;4973808;28;20077;-85
2022/01/11 11:08:10;;;;;;;6.38;3.85;;;;;;;6.96;100.00;102178.88;4974126;28;20121;-85
2022/01/11 11:10:45;;;;;;;6.78;4.22;;;;;;;6.98;100.00;102176.41;4962248;28;20511;-84
2022/01/11 11:13:30;;;;;;;7.80;4.20;;;;;;;7.02;100.00;102188.69;4967798;28;20424;-84
2022/01/11 11:16:09;;;;;;;5.50;3.63;;;;;;;7.02;100.00;102196.41;4959246;28;20512;-83
2022/01/11 11:18:49;;;;;;;7.65;4.07;;;;;;;7.04;100.00;102189.69;4973978;28;20098;-83
2022/01/11 11:21:21;;;;;;;5.88;3.65;;;;;;;7.00;100.00;102185.13;4976929;28;20057;-83
2022/01/11 11:23:52;;;;;;;9.73;4.20;;;;;;;6.98;100.00;102181.53;4972656;28;20051;-84
2022/01/11 11:26:22;;;;;;;7.03;3.35;;;;;;;6.98;100.00;102172.13;4973919;28;20376;-85
2022/01/11 11:28:51;;;;;;;7.43;4.28;;;;;;;6.97;100.00;102174.63;4973133;28;20116;-84
2022/01/11 11:31:22;;;;;;;5.70;3.83;;;;;;;6.97;100.00;102159.19;4973253;28;20050;-84
2022/01/11 11:33:50;;;;;;;8.65;4.40;;;;;;;7.01;100.00;102166.31;4973327;28;20062;-83
2022/01/11 11:36:24;;;;;;;6.63;4.25;;;;;;;7.03;100.00;102159.56;4972802;28;20117;-84
2022/01/11 11:38:58;;;;;;;7.90;4.10;;;;;;;7.05;100.00;102164.03;4959717;28;20583;-84